Valyermo, California
Current Conditions -  °F | °C
As of 1:55 AM on Sunday 26 Oct 2014 (Local Time) from KGXA Reporting Station
Clear Clear  
Wind Chill: 53°   Ceiling: Unl
Heat Index: 53°   Visibility: 10mi
Dew Point: 42°   Wind: 7mph
Humidity: 66%   Direction: 290°WNW
Pressure: 30.07"   Gusts: NA
Location:  34.42°N, 117.79°W
Report Text: KGXA 260855Z AUTO 29006KT 10SM CLR 12/05 A3007 RMK AO2 SLP157 T01160054 57003 TSNO $
Loading
Personal Weather Stations






























Interactive Weather Map
Tropical Storm Tracking
New forecast layout! Learn more

10-Day Weather Forecast

Advertisements
Track Severe Weather on mobile